createdAt,value
2019-03-22T00:01:29.760Z,99.90
2019-03-22T00:03:59.858Z,99.90
2019-03-22T00:06:29.959Z,99.90
2019-03-22T00:09:00.128Z,99.90
2019-03-22T00:11:30.216Z,99.90
2019-03-22T00:14:00.293Z,99.90
2019-03-22T00:16:30.370Z,99.90
2019-03-22T00:19:00.411Z,99.90
2019-03-22T00:21:30.493Z,99.90
2019-03-22T00:24:00.563Z,99.90
2019-03-22T00:26:32.478Z,99.90
2019-03-22T00:29:02.433Z,99.90
2019-03-22T00:31:32.527Z,99.90
2019-03-22T00:34:02.581Z,99.90
2019-03-22T00:36:32.675Z,99.90
2019-03-22T00:39:02.753Z,99.90
2019-03-22T00:41:33.107Z,99.90
2019-03-22T00:44:03.253Z,99.90
2019-03-22T00:46:33.304Z,99.90
2019-03-22T00:49:03.526Z,99.90
2019-03-22T00:51:33.649Z,99.90
2019-03-22T00:54:03.909Z,99.90
2019-03-22T00:56:33.964Z,99.90
2019-03-22T01:00:00.908Z,99.90
2019-03-22T01:02:31.023Z,99.90
2019-03-22T01:05:01.136Z,99.90
2019-03-22T01:07:31.339Z,99.90
2019-03-22T01:10:01.435Z,99.90
2019-03-22T01:12:31.496Z,99.90
2019-03-22T01:15:02.218Z,99.90
2019-03-22T01:17:32.361Z,99.90
2019-03-22T01:20:02.550Z,99.90
2019-03-22T01:22:32.613Z,99.90
2019-03-22T01:25:02.687Z,99.90
2019-03-22T01:27:40.272Z,99.90
2019-03-22T01:30:04.720Z,99.90
2019-03-22T01:32:34.767Z,99.90
2019-03-22T01:35:05.202Z,99.90
2019-03-22T01:37:35.616Z,99.90
2019-03-22T01:40:06.320Z,99.90
2019-03-22T01:42:36.629Z,99.90
2019-03-22T01:45:08.146Z,99.90
2019-03-22T01:47:38.339Z,99.90
2019-03-22T01:50:10.622Z,99.90
2019-03-22T01:52:41.155Z,99.90
2019-03-22T01:55:11.477Z,99.90
2019-03-22T01:57:52.410Z,99.90
2019-03-22T02:00:13.708Z,99.90
2019-03-22T02:02:43.938Z,99.90
2019-03-22T02:05:16.402Z,99.90
2019-03-22T02:07:46.424Z,99.90
2019-03-22T02:10:16.609Z,99.90
2019-03-22T02:12:46.771Z,99.90
2019-03-22T02:15:17.021Z,99.90
2019-03-22T02:17:47.038Z,99.90
2019-03-22T02:20:17.685Z,99.90
2019-03-22T02:22:48.081Z,99.90
2019-03-22T02:25:35.913Z,99.90
2019-03-22T02:28:06.005Z,99.90
2019-03-22T02:30:36.406Z,99.90
2019-03-22T02:33:06.487Z,99.90
2019-03-22T02:35:36.693Z,99.90
2019-03-22T02:38:07.166Z,99.90
2019-03-22T02:40:37.614Z,99.90
2019-03-22T02:43:08.213Z,99.90
2019-03-22T02:45:38.366Z,99.90
2019-03-22T02:48:08.399Z,99.90
2019-03-22T02:50:38.529Z,99.90
2019-03-22T02:53:08.658Z,99.90
2019-03-22T02:55:57.398Z,99.90
2019-03-22T02:58:27.450Z,99.90
2019-03-22T03:00:57.428Z,99.90
2019-03-22T03:03:27.358Z,99.90
2019-03-22T03:05:57.237Z,99.90
2019-03-22T03:08:27.549Z,99.90
2019-03-22T03:10:57.484Z,99.90
2019-03-22T03:13:27.477Z,99.90
2019-03-22T03:15:57.471Z,99.90
2019-03-22T03:18:27.431Z,99.90
2019-03-22T03:20:57.296Z,99.90
2019-03-22T03:23:27.313Z,99.90
2019-03-22T03:25:57.189Z,99.90
2019-03-22T03:28:36.761Z,99.90
2019-03-22T03:30:58.871Z,99.90
2019-03-22T03:33:29.130Z,99.90
2019-03-22T03:35:59.016Z,99.90
2019-03-22T03:38:29.052Z,99.90
2019-03-22T03:40:59.064Z,99.90
2019-03-22T03:43:29.015Z,99.90
2019-03-22T03:45:58.899Z,99.90
2019-03-22T03:48:28.801Z,99.90
2019-03-22T03:50:58.684Z,99.90
2019-03-22T03:53:46.055Z,99.90
2019-03-22T03:56:16.028Z,99.90
2019-03-22T03:58:52.375Z,99.90
2019-03-22T04:01:17.612Z,99.90
2019-03-22T04:03:48.035Z,99.90
2019-03-22T04:06:18.063Z,99.90
2019-03-22T04:08:48.398Z,99.90
2019-03-22T04:11:18.293Z,99.90
2019-03-22T04:13:48.280Z,99.90
2019-03-22T04:16:18.209Z,99.90
2019-03-22T04:18:48.097Z,99.90
2019-03-22T04:21:18.020Z,99.90
2019-03-22T04:23:48.230Z,99.90
2019-03-22T04:26:18.142Z,99.90
2019-03-22T04:28:48.036Z,99.90
2019-03-22T04:31:17.977Z,99.90
2019-03-22T04:33:47.938Z,99.90
2019-03-22T04:36:17.852Z,99.90
2019-03-22T04:38:47.832Z,99.90
2019-03-22T04:41:17.723Z,99.90
2019-03-22T04:43:47.696Z,99.90
2019-03-22T04:46:18.188Z,99.90
2019-03-22T04:48:48.926Z,99.90
2019-03-22T04:51:19.412Z,99.90
2019-03-22T04:53:56.836Z,99.90
2019-03-22T04:56:27.235Z,99.90
2019-03-22T04:59:00.708Z,99.90
2019-03-22T05:01:32.212Z,99.90
2019-03-22T05:04:03.837Z,99.90
2019-03-22T05:06:35.600Z,99.90
2019-03-22T05:09:09.583Z,99.90
2019-03-22T05:11:41.409Z,99.90
2019-03-22T05:14:12.872Z,99.90
2019-03-22T05:17:10.047Z,99.90
2019-03-22T05:19:43.695Z,99.90
2019-03-22T05:22:15.638Z,99.90
2019-03-22T05:24:48.191Z,99.90
2019-03-22T05:27:19.933Z,99.90
2019-03-22T05:29:50.315Z,99.90
2019-03-22T05:32:20.372Z,99.90
2019-03-22T05:34:50.251Z,99.90
2019-03-22T05:37:20.221Z,99.90
2019-03-22T05:39:50.143Z,99.90
2019-03-22T05:42:20.072Z,99.90
2019-03-22T05:44:50.016Z,99.90
2019-03-22T05:47:19.941Z,99.90
2019-03-22T05:49:49.897Z,99.90
2019-03-22T05:52:19.808Z,99.90
2019-03-22T05:54:49.801Z,99.90
2019-03-22T05:57:19.767Z,99.90
2019-03-22T05:59:49.692Z,99.90
2019-03-22T06:02:19.588Z,99.90
2019-03-22T06:04:49.775Z,99.90
2019-03-22T06:07:19.789Z,99.90
2019-03-22T06:09:49.900Z,99.90
2019-03-22T06:12:19.846Z,99.90
2019-03-22T06:14:49.859Z,99.90
2019-03-22T06:17:20.505Z,99.90
2019-03-22T06:19:50.493Z,99.90
2019-03-22T06:22:20.383Z,99.90
2019-03-22T06:24:50.276Z,99.90
2019-03-22T06:27:20.153Z,99.90
2019-03-22T06:29:54.464Z,99.90
2019-03-22T06:32:22.020Z,99.90
2019-03-22T06:34:52.072Z,99.90
2019-03-22T06:37:21.945Z,99.90
2019-03-22T06:39:51.860Z,99.90
2019-03-22T06:42:21.760Z,99.90
2019-03-22T06:44:51.720Z,99.90
2019-03-22T06:47:21.614Z,99.90
2019-03-22T06:49:51.623Z,99.90
2019-03-22T06:52:21.578Z,99.90
2019-03-22T06:54:51.636Z,99.90
2019-03-22T06:57:21.551Z,99.90
2019-03-22T06:59:51.453Z,99.90
2019-03-22T07:02:21.387Z,99.90
2019-03-22T07:04:51.329Z,99.90
2019-03-22T07:07:21.318Z,99.90
2019-03-22T07:09:51.212Z,99.90
2019-03-22T07:12:21.162Z,99.90
2019-03-22T07:14:51.056Z,99.90
2019-03-22T07:17:21.122Z,99.90
2019-03-22T07:19:51.052Z,99.90
2019-03-22T07:22:21.060Z,99.90
2019-03-22T07:24:51.013Z,99.90
2019-03-22T07:27:20.965Z,99.90
2019-03-22T07:29:50.865Z,99.90
2019-03-22T07:32:20.835Z,99.90
2019-03-22T07:34:51.039Z,99.90
2019-03-22T07:37:21.079Z,99.90
2019-03-22T07:39:51.053Z,99.90
2019-03-22T07:42:20.988Z,99.90
2019-03-22T07:44:50.880Z,99.90
2019-03-22T07:47:20.884Z,99.90
2019-03-22T07:49:50.764Z,99.90
2019-03-22T07:52:20.668Z,99.90
2019-03-22T07:54:50.636Z,99.70
2019-03-22T07:57:20.683Z,98.30
2019-03-22T07:59:50.639Z,96.40
2019-03-22T08:02:20.590Z,94.70
2019-03-22T08:04:50.545Z,92.90
2019-03-22T08:07:20.457Z,91.50
2019-03-22T08:09:51.367Z,92.00
2019-03-22T08:12:21.516Z,92.10
2019-03-22T08:14:51.513Z,90.60
2019-03-22T08:17:21.903Z,87.70
2019-03-22T08:19:52.234Z,84.00
2019-03-22T08:22:22.131Z,81.50
2019-03-22T08:24:52.148Z,72.50
2019-03-22T08:27:22.166Z,71.30
2019-03-22T08:29:52.262Z,65.40
2019-03-22T08:32:22.234Z,64.40
2019-03-22T08:34:52.117Z,62.30
2019-03-22T08:37:22.059Z,61.30
2019-03-22T08:39:52.198Z,58.80
2019-03-22T08:42:22.118Z,59.90
2019-03-22T08:44:52.029Z,59.30
2019-03-22T08:47:33.144Z,59.60
2019-03-22T08:49:53.830Z,62.00
2019-03-22T08:52:23.729Z,62.90
2019-03-22T08:54:53.718Z,64.40
2019-03-22T08:57:24.990Z,62.60
2019-03-22T08:59:55.177Z,65.80
2019-03-22T09:02:25.101Z,61.70
2019-03-22T09:04:55.091Z,60.00
2019-03-22T09:07:24.967Z,58.50
2019-03-22T09:09:54.895Z,55.60
2019-03-22T09:12:26.910Z,54.70
2019-03-22T09:14:56.507Z,54.50
2019-03-22T09:17:26.555Z,54.30
2019-03-22T09:19:56.594Z,53.40
2019-03-22T09:22:26.522Z,55.60
2019-03-22T09:24:56.424Z,53.40
2019-03-22T09:27:26.369Z,56.10
2019-03-22T09:29:56.383Z,54.90
2019-03-22T09:32:26.365Z,53.50
2019-03-22T09:34:56.480Z,52.60
2019-03-22T09:37:26.550Z,51.60
2019-03-22T09:39:56.513Z,50.50
2019-03-22T09:42:26.475Z,51.60
2019-03-22T09:44:56.369Z,49.40
2019-03-22T09:47:26.522Z,52.10
2019-03-22T09:49:56.446Z,49.80
2019-03-22T09:52:26.415Z,50.00
2019-03-22T09:54:56.362Z,49.30
2019-03-22T09:57:26.246Z,50.60
2019-03-22T09:59:56.367Z,53.90
2019-03-22T10:02:26.374Z,54.80
2019-03-22T10:04:56.444Z,53.40
2019-03-22T10:07:26.467Z,52.50
2019-03-22T10:09:56.535Z,51.30
2019-03-22T10:12:26.517Z,52.10
2019-03-22T10:14:56.450Z,52.40
2019-03-22T10:17:26.375Z,52.90
2019-03-22T10:19:56.436Z,51.50
2019-03-22T10:22:26.357Z,51.60
2019-03-22T10:24:56.341Z,51.30
2019-03-22T10:27:26.250Z,53.10
2019-03-22T10:29:56.184Z,51.40
2019-03-22T10:32:26.163Z,51.80
2019-03-22T10:34:56.120Z,50.30
2019-03-22T10:37:26.135Z,51.00
2019-03-22T10:39:56.101Z,51.20
2019-03-22T10:42:26.021Z,49.40
2019-03-22T10:44:56.209Z,51.90
2019-03-22T10:47:26.255Z,51.50
2019-03-22T10:49:56.140Z,52.90
2019-03-22T10:52:26.146Z,52.50
2019-03-22T10:54:56.090Z,51.00
2019-03-22T10:57:26.050Z,50.70
2019-03-22T10:59:55.985Z,52.30
2019-03-22T11:02:26.230Z,52.50
2019-03-22T11:04:56.258Z,51.70
2019-03-22T11:07:26.323Z,52.60
2019-03-22T11:09:56.220Z,50.90
2019-03-22T11:12:26.465Z,51.20
2019-03-22T11:14:56.442Z,51.30
2019-03-22T11:17:26.340Z,52.00
2019-03-22T11:19:57.544Z,53.20
2019-03-22T11:22:27.766Z,52.80
2019-03-22T11:24:57.782Z,51.50
2019-03-22T11:27:27.781Z,52.20
2019-03-22T11:29:57.732Z,52.70
2019-03-22T11:32:27.656Z,52.50
2019-03-22T11:34:57.591Z,52.10
2019-03-22T11:37:27.510Z,51.30
2019-03-22T11:39:57.486Z,52.40
2019-03-22T11:42:27.414Z,51.50
2019-03-22T11:44:57.275Z,49.60
2019-03-22T11:47:27.195Z,50.50
2019-03-22T11:49:57.183Z,50.80
2019-03-22T11:52:27.139Z,51.40
2019-03-22T11:54:57.307Z,50.90
2019-03-22T11:57:27.221Z,51.50
2019-03-22T11:59:57.140Z,52.10
2019-03-22T12:02:27.079Z,53.50
2019-03-22T12:04:56.948Z,52.90
2019-03-22T12:07:26.947Z,53.20
2019-03-22T12:09:56.848Z,52.20
2019-03-22T12:12:26.710Z,51.50
2019-03-22T12:14:56.696Z,52.70
2019-03-22T12:17:26.569Z,53.40
2019-03-22T12:19:56.487Z,52.10
2019-03-22T12:22:26.455Z,53.00
2019-03-22T12:24:56.455Z,52.10
2019-03-22T12:27:36.054Z,51.20
2019-03-22T12:29:58.089Z,50.30
2019-03-22T12:32:32.233Z,50.10
2019-03-22T12:35:00.044Z,50.10
2019-03-22T12:37:30.033Z,50.90
2019-03-22T12:39:59.968Z,50.60
2019-03-22T12:42:30.001Z,52.20
2019-03-22T12:44:59.976Z,50.90
2019-03-22T12:47:29.913Z,50.50
2019-03-22T12:49:59.834Z,51.30
2019-03-22T12:52:31.374Z,51.30
2019-03-22T12:55:01.524Z,52.30
2019-03-22T12:57:31.624Z,51.20
2019-03-22T13:00:01.552Z,51.50
2019-03-22T13:02:31.502Z,51.40
2019-03-22T13:05:01.406Z,50.50
2019-03-22T13:07:31.374Z,50.70
2019-03-22T13:10:01.366Z,51.90
2019-03-22T13:12:31.388Z,51.20
2019-03-22T13:15:01.345Z,51.80
2019-03-22T13:17:31.264Z,52.40
2019-03-22T13:20:01.140Z,51.20
2019-03-22T13:22:31.043Z,51.70
2019-03-22T13:25:00.999Z,51.40
2019-03-22T13:27:30.943Z,50.80
2019-03-22T13:30:00.866Z,51.80
2019-03-22T13:32:30.780Z,50.70
2019-03-22T13:35:00.772Z,52.20
2019-03-22T13:37:30.775Z,53.30
2019-03-22T13:40:00.718Z,53.30
2019-03-22T13:42:30.717Z,53.50
2019-03-22T13:45:00.657Z,53.30
2019-03-22T13:47:30.615Z,53.90
2019-03-22T13:50:00.587Z,53.20
2019-03-22T13:52:30.519Z,52.90
2019-03-22T13:55:00.481Z,53.50
2019-03-22T13:57:30.431Z,52.90
2019-03-22T14:00:00.603Z,54.70
2019-03-22T14:02:30.508Z,53.70
2019-03-22T14:05:03.420Z,53.90
2019-03-22T14:07:33.548Z,53.60
2019-03-22T14:10:03.634Z,54.30
2019-03-22T14:12:37.221Z,54.70
2019-03-22T14:15:08.318Z,54.30
2019-03-22T14:17:38.301Z,54.10
2019-03-22T14:20:11.447Z,54.60
2019-03-22T14:22:40.222Z,54.50
2019-03-22T14:25:10.196Z,53.90
2019-03-22T14:27:40.509Z,54.00
2019-03-22T14:30:11.493Z,55.00
2019-03-22T14:32:41.860Z,55.10
2019-03-22T14:35:11.777Z,55.10
2019-03-22T14:37:43.840Z,54.50
2019-03-22T14:40:15.819Z,53.90
2019-03-22T14:42:45.647Z,54.50
2019-03-22T14:45:15.760Z,55.00
2019-03-22T14:47:45.697Z,54.90
2019-03-22T14:50:15.671Z,55.30
2019-03-22T14:52:45.592Z,55.70
2019-03-22T14:55:15.650Z,55.10
2019-03-22T14:57:49.257Z,54.90
2019-03-22T15:00:17.392Z,55.00
2019-03-22T15:02:47.368Z,55.30
2019-03-22T15:05:17.413Z,55.40
2019-03-22T15:07:47.692Z,55.20
2019-03-22T15:10:17.715Z,55.20
2019-03-22T15:12:48.064Z,56.00
2019-03-22T15:15:36.905Z,56.10
2019-03-22T15:18:14.753Z,56.60
2019-03-22T15:21:09.955Z,55.80
2019-03-22T15:24:03.429Z,56.90
2019-03-22T15:26:44.887Z,56.80
2019-03-22T15:29:42.869Z,56.60
2019-03-22T15:32:27.635Z,56.50
2019-03-22T15:35:34.928Z,56.00
2019-03-22T15:38:22.476Z,56.90
2019-03-22T15:40:52.747Z,56.80
2019-03-22T15:43:22.849Z,56.90
2019-03-22T15:45:52.853Z,58.00
2019-03-22T15:48:22.786Z,56.90
2019-03-22T15:50:52.695Z,57.30
2019-03-22T15:53:22.622Z,57.60
2019-03-22T15:55:52.725Z,57.70
2019-03-22T15:58:22.742Z,57.60
2019-03-22T16:00:52.793Z,57.90
2019-03-22T16:03:22.852Z,58.00
2019-03-22T16:05:52.749Z,57.90
2019-03-22T16:08:23.024Z,57.50
2019-03-22T16:10:52.999Z,58.20
2019-03-22T16:13:23.104Z,58.00
2019-03-22T16:15:53.156Z,58.50
2019-03-22T16:18:23.135Z,58.60
2019-03-22T16:21:28.465Z,58.50
2019-03-22T16:23:58.455Z,59.20
2019-03-22T16:26:28.425Z,59.30
2019-03-22T16:29:16.875Z,59.70
2019-03-22T16:31:46.889Z,60.10
2019-03-22T16:34:17.037Z,60.30
2019-03-22T16:36:47.330Z,60.40
2019-03-22T16:39:52.556Z,60.40
2019-03-22T16:42:22.829Z,60.90
2019-03-22T16:44:52.980Z,61.40
2019-03-22T16:47:23.151Z,61.70
2019-03-22T16:49:53.480Z,61.90
2019-03-22T16:52:23.990Z,62.80
2019-03-22T16:55:29.407Z,63.50
2019-03-22T16:57:59.513Z,63.80
2019-03-22T17:00:32.990Z,64.50
2019-03-22T17:03:03.673Z,64.80
2019-03-22T17:05:34.059Z,64.70
2019-03-22T17:08:04.720Z,65.40
2019-03-22T17:10:34.965Z,67.30
2019-03-22T17:13:05.440Z,69.50
2019-03-22T17:15:35.930Z,70.90
2019-03-22T17:18:06.598Z,72.30
2019-03-22T17:20:38.919Z,73.80
2019-03-22T17:23:26.885Z,75.40
2019-03-22T17:25:57.257Z,75.90
2019-03-22T17:28:27.483Z,76.20
2019-03-22T17:30:57.907Z,76.60
2019-03-22T17:33:46.132Z,77.40
2019-03-22T17:36:16.396Z,77.70
2019-03-22T17:38:46.570Z,78.70
2019-03-22T17:41:16.873Z,80.10
2019-03-22T17:43:46.971Z,81.40
2019-03-22T17:46:17.141Z,82.20
2019-03-22T17:48:47.328Z,82.30
2019-03-22T17:51:17.421Z,82.80
2019-03-22T17:53:47.582Z,83.30
2019-03-22T17:56:17.857Z,84.20
2019-03-22T17:58:48.285Z,85.10
2019-03-22T18:01:18.437Z,84.90
2019-03-22T18:03:48.621Z,85.60
2019-03-22T18:06:18.971Z,85.80
2019-03-22T18:08:49.155Z,85.30
2019-03-22T18:11:19.365Z,86.30
2019-03-22T18:13:49.561Z,87.00
2019-03-22T18:16:19.729Z,87.20
2019-03-22T18:18:49.902Z,87.80
2019-03-22T18:21:20.060Z,88.00
2019-03-22T18:23:50.247Z,88.00
2019-03-22T18:26:20.557Z,88.10
2019-03-22T18:28:50.825Z,88.10
2019-03-22T18:35:01.779Z,89.50
2019-03-22T18:37:32.251Z,90.40
2019-03-22T18:40:02.410Z,90.80
2019-03-22T18:42:32.946Z,90.70
2019-03-22T18:45:39.129Z,91.10
2019-03-22T18:48:28.911Z,91.20
2019-03-22T18:50:59.025Z,91.50
2019-03-22T18:53:29.270Z,92.20
2019-03-22T18:55:59.451Z,92.50
2019-03-22T18:58:29.691Z,93.40
2019-03-22T19:00:59.962Z,93.40
2019-03-22T19:03:30.419Z,93.50
2019-03-22T19:06:00.714Z,93.90
2019-03-22T19:08:30.852Z,94.30
2019-03-22T19:11:01.000Z,95.10
2019-03-22T19:13:31.195Z,95.60
2019-03-22T19:16:01.761Z,96.00
2019-03-22T19:18:49.506Z,96.70
2019-03-22T19:21:19.741Z,97.40
2019-03-22T19:23:49.957Z,98.00
2019-03-22T19:26:20.249Z,99.10
2019-03-22T19:28:50.578Z,99.90
2019-03-22T19:31:21.817Z,99.90
2019-03-22T19:33:52.013Z,99.90
2019-03-22T19:36:22.144Z,99.90
2019-03-22T19:38:52.427Z,99.90
2019-03-22T19:41:22.969Z,99.90
2019-03-22T19:43:53.251Z,99.90
2019-03-22T19:46:23.481Z,99.90
2019-03-22T19:48:53.609Z,99.90
2019-03-22T19:51:23.794Z,99.90
2019-03-22T19:53:54.152Z,99.90
2019-03-22T19:56:24.714Z,99.90
2019-03-22T19:58:54.914Z,99.90
2019-03-22T20:01:25.111Z,99.90
2019-03-22T20:03:55.376Z,99.90
2019-03-22T20:06:25.588Z,99.90
2019-03-22T20:08:55.844Z,99.90
2019-03-22T20:11:26.093Z,99.90
2019-03-22T20:13:56.684Z,99.90
2019-03-22T20:16:26.994Z,99.90
2019-03-22T20:18:57.300Z,99.90
2019-03-22T20:21:27.582Z,99.90
2019-03-22T20:23:57.807Z,99.90
2019-03-22T20:26:28.032Z,99.90
2019-03-22T20:28:58.290Z,99.90
2019-03-22T20:31:28.900Z,99.90
2019-03-22T20:33:59.238Z,99.90
2019-03-22T20:36:29.429Z,99.90
2019-03-22T20:39:17.298Z,99.90
2019-03-22T20:41:47.622Z,99.90
2019-03-22T20:44:17.981Z,99.90
2019-03-22T20:46:48.219Z,99.90
2019-03-22T20:49:18.418Z,99.90
2019-03-22T20:51:49.067Z,99.90
2019-03-22T20:54:19.417Z,99.90
2019-03-22T20:56:49.615Z,99.90
2019-03-22T20:59:19.975Z,99.90
2019-03-22T21:01:50.275Z,99.90
2019-03-22T21:04:20.499Z,99.90
2019-03-22T21:06:50.662Z,99.90
2019-03-22T21:09:21.390Z,99.90
2019-03-22T21:12:26.925Z,99.90
2019-03-22T21:14:57.274Z,99.90
2019-03-22T21:17:27.560Z,99.90
2019-03-22T21:19:57.730Z,99.90
2019-03-22T21:22:27.977Z,99.90
2019-03-22T21:24:58.830Z,99.90
2019-03-22T21:27:29.070Z,99.90
2019-03-22T21:29:59.227Z,99.90
2019-03-22T21:32:29.359Z,99.90
2019-03-22T21:34:59.536Z,99.90
2019-03-22T21:37:29.681Z,99.90
2019-03-22T21:39:59.853Z,99.90
2019-03-22T21:42:30.097Z,99.90
2019-03-22T21:45:00.177Z,99.90
2019-03-22T21:47:30.401Z,99.90
2019-03-22T21:50:00.425Z,99.90
2019-03-22T21:52:30.651Z,99.90
2019-03-22T21:55:00.882Z,99.90
2019-03-22T21:57:30.843Z,99.90
2019-03-22T22:00:00.822Z,99.90
2019-03-22T22:02:30.774Z,99.90
2019-03-22T22:05:00.839Z,99.90
2019-03-22T22:07:30.974Z,99.90
2019-03-22T22:10:01.020Z,99.90
2019-03-22T22:12:31.434Z,99.90
2019-03-22T22:15:01.560Z,99.90
2019-03-22T22:17:31.664Z,99.90
2019-03-22T22:20:01.740Z,99.90
2019-03-22T22:22:31.692Z,99.90
2019-03-22T22:25:01.724Z,99.90
2019-03-22T22:27:31.755Z,99.90
2019-03-22T22:30:01.717Z,99.90
2019-03-22T22:32:31.755Z,99.90
2019-03-22T22:35:01.743Z,99.90
2019-03-22T22:37:31.693Z,99.90
2019-03-22T22:40:01.755Z,99.90
2019-03-22T22:42:31.814Z,99.90
2019-03-22T22:45:01.864Z,99.90
2019-03-22T22:47:31.991Z,99.90
2019-03-22T22:50:01.983Z,99.90
2019-03-22T22:52:32.227Z,99.90
2019-03-22T22:55:02.266Z,99.90
2019-03-22T22:57:32.325Z,99.90
2019-03-22T23:00:02.308Z,99.90
2019-03-22T23:02:32.349Z,99.90
2019-03-22T23:05:02.515Z,99.90
2019-03-22T23:07:32.532Z,99.90
2019-03-22T23:10:02.502Z,99.90
2019-03-22T23:12:32.398Z,99.90
2019-03-22T23:15:02.478Z,99.90
2019-03-22T23:17:32.558Z,99.90
2019-03-22T23:20:02.608Z,99.90
2019-03-22T23:22:33.092Z,99.90
2019-03-22T23:25:03.243Z,99.90
2019-03-22T23:27:33.256Z,99.90
2019-03-22T23:30:03.278Z,99.90
2019-03-22T23:32:33.155Z,99.90
2019-03-22T23:35:03.140Z,99.90
2019-03-22T23:37:33.168Z,99.90
2019-03-22T23:40:03.185Z,99.90
2019-03-22T23:42:33.176Z,99.90
2019-03-22T23:45:03.086Z,99.90
2019-03-22T23:47:33.190Z,99.90
2019-03-22T23:50:03.148Z,99.90
2019-03-22T23:52:33.080Z,99.90
2019-03-22T23:55:03.163Z,99.90
2019-03-22T23:57:33.127Z,99.90
